sensor_id;sensor_type;location;lat;lon;timestamp;temperature;humidity
35970;DHT22;22448;51.298;6.430;2023-06-14T00:02:04;17.90;87.80
35970;DHT22;22448;51.298;6.430;2023-06-14T00:04:32;17.90;88.10
35970;DHT22;22448;51.298;6.430;2023-06-14T00:06:59;17.90;88.10
35970;DHT22;22448;51.298;6.430;2023-06-14T00:09:26;18.00;87.90
35970;DHT22;22448;51.298;6.430;2023-06-14T00:11:54;18.00;88.10
35970;DHT22;22448;51.298;6.430;2023-06-14T00:14:21;18.00;88.10
35970;DHT22;22448;51.298;6.430;2023-06-14T00:16:48;18.00;88.50
35970;DHT22;22448;51.298;6.430;2023-06-14T00:19:15;17.90;88.60
35970;DHT22;22448;51.298;6.430;2023-06-14T00:21:43;17.90;89.50
35970;DHT22;22448;51.298;6.430;2023-06-14T00:24:10;17.80;90.00
35970;DHT22;22448;51.298;6.430;2023-06-14T00:26:37;17.80;90.30
35970;DHT22;22448;51.298;6.430;2023-06-14T00:29:04;17.70;90.80
35970;DHT22;22448;51.298;6.430;2023-06-14T00:31:31;17.60;90.90
35970;DHT22;22448;51.298;6.430;2023-06-14T00:33:58;17.60;90.90
35970;DHT22;22448;51.298;6.430;2023-06-14T00:36:25;17.60;90.90
35970;DHT22;22448;51.298;6.430;2023-06-14T00:38:52;17.60;91.00
35970;DHT22;22448;51.298;6.430;2023-06-14T00:41:20;17.50;91.00
35970;DHT22;22448;51.298;6.430;2023-06-14T00:43:48;17.40;91.20
35970;DHT22;22448;51.298;6.430;2023-06-14T00:46:15;17.40;91.00
35970;DHT22;22448;51.298;6.430;2023-06-14T00:48:42;17.40;91.30
35970;DHT22;22448;51.298;6.430;2023-06-14T00:51:09;17.40;91.20
35970;DHT22;22448;51.298;6.430;2023-06-14T00:53:37;17.30;91.50
35970;DHT22;22448;51.298;6.430;2023-06-14T00:56:06;17.30;90.90
35970;DHT22;22448;51.298;6.430;2023-06-14T00:58:33;17.30;91.20
35970;DHT22;22448;51.298;6.430;2023-06-14T01:01:00;17.20;91.10
35970;DHT22;22448;51.298;6.430;2023-06-14T01:03:28;17.20;91.30
35970;DHT22;22448;51.298;6.430;2023-06-14T01:08:48;17.20;90.70
35970;DHT22;22448;51.298;6.430;2023-06-14T01:11:26;17.20;90.80
35970;DHT22;22448;51.298;6.430;2023-06-14T01:13:56;17.20;90.90
35970;DHT22;22448;51.298;6.430;2023-06-14T01:16:23;17.20;90.80
35970;DHT22;22448;51.298;6.430;2023-06-14T01:18:52;17.20;90.80
35970;DHT22;22448;51.298;6.430;2023-06-14T01:21:24;17.10;90.80
35970;DHT22;22448;51.298;6.430;2023-06-14T01:23:52;17.10;90.80
35970;DHT22;22448;51.298;6.430;2023-06-14T01:26:24;17.10;90.90
35970;DHT22;22448;51.298;6.430;2023-06-14T01:28:53;17.10;91.00
35970;DHT22;22448;51.298;6.430;2023-06-14T01:31:25;17.10;90.90
35970;DHT22;22448;51.298;6.430;2023-06-14T01:33:53;17.10;91.10
35970;DHT22;22448;51.298;6.430;2023-06-14T01:36:22;17.10;90.90
35970;DHT22;22448;51.298;6.430;2023-06-14T01:38:53;17.10;91.10
35970;DHT22;22448;51.298;6.430;2023-06-14T01:41:21;17.00;91.00
35970;DHT22;22448;51.298;6.430;2023-06-14T01:43:49;17.00;91.20
35970;DHT22;22448;51.298;6.430;2023-06-14T01:46:17;16.90;91.30
35970;DHT22;22448;51.298;6.430;2023-06-14T01:48:46;16.90;91.30
35970;DHT22;22448;51.298;6.430;2023-06-14T01:51:13;16.90;91.60
35970;DHT22;22448;51.298;6.430;2023-06-14T01:53:41;16.90;91.50
35970;DHT22;22448;51.298;6.430;2023-06-14T01:56:09;16.90;91.60
35970;DHT22;22448;51.298;6.430;2023-06-14T01:58:36;16.90;91.60
35970;DHT22;22448;51.298;6.430;2023-06-14T02:01:03;16.80;91.80
35970;DHT22;22448;51.298;6.430;2023-06-14T02:03:32;16.80;91.90
35970;DHT22;22448;51.298;6.430;2023-06-14T02:05:59;16.70;92.00
35970;DHT22;22448;51.298;6.430;2023-06-14T02:08:27;16.70;92.20
35970;DHT22;22448;51.298;6.430;2023-06-14T02:10:54;16.60;92.30
35970;DHT22;22448;51.298;6.430;2023-06-14T02:13:21;16.50;92.40
35970;DHT22;22448;51.298;6.430;2023-06-14T02:15:50;16.50;92.70
35970;DHT22;22448;51.298;6.430;2023-06-14T02:18:21;16.50;92.80
35970;DHT22;22448;51.298;6.430;2023-06-14T02:20:48;16.40;93.00
35970;DHT22;22448;51.298;6.430;2023-06-14T02:23:15;16.30;93.00
35970;DHT22;22448;51.298;6.430;2023-06-14T02:25:42;16.30;93.30
35970;DHT22;22448;51.298;6.430;2023-06-14T02:28:12;16.20;93.80
35970;DHT22;22448;51.298;6.430;2023-06-14T02:30:39;16.10;94.20
35970;DHT22;22448;51.298;6.430;2023-06-14T02:33:07;16.00;94.70
35970;DHT22;22448;51.298;6.430;2023-06-14T02:35:34;15.90;95.00
35970;DHT22;22448;51.298;6.430;2023-06-14T02:38:01;15.80;95.30
35970;DHT22;22448;51.298;6.430;2023-06-14T02:40:28;15.70;95.70
35970;DHT22;22448;51.298;6.430;2023-06-14T02:42:56;15.60;96.00
35970;DHT22;22448;51.298;6.430;2023-06-14T02:45:23;15.60;96.40
35970;DHT22;22448;51.298;6.430;2023-06-14T02:47:50;15.50;96.80
35970;DHT22;22448;51.298;6.430;2023-06-14T02:50:18;15.50;97.00
35970;DHT22;22448;51.298;6.430;2023-06-14T02:52:45;15.40;97.20
35970;DHT22;22448;51.298;6.430;2023-06-14T02:55:12;15.40;97.50
35970;DHT22;22448;51.298;6.430;2023-06-14T02:57:39;15.30;98.00
35970;DHT22;22448;51.298;6.430;2023-06-14T03:00:09;15.30;98.40
35970;DHT22;22448;51.298;6.430;2023-06-14T03:02:43;15.20;98.60
35970;DHT22;22448;51.298;6.430;2023-06-14T03:05:11;15.20;98.90
35970;DHT22;22448;51.298;6.430;2023-06-14T03:07:38;15.10;99.20
35970;DHT22;22448;51.298;6.430;2023-06-14T03:10:08;15.10;99.60
35970;DHT22;22448;51.298;6.430;2023-06-14T03:12:40;15.00;99.90
35970;DHT22;22448;51.298;6.430;2023-06-14T03:15:09;15.00;99.90
35970;DHT22;22448;51.298;6.430;2023-06-14T03:17:41;15.00;99.90
35970;DHT22;22448;51.298;6.430;2023-06-14T03:20:13;15.00;99.90
35970;DHT22;22448;51.298;6.430;2023-06-14T03:22:41;15.00;99.90
35970;DHT22;22448;51.298;6.430;2023-06-14T03:25:12;15.00;99.90
35970;DHT22;22448;51.298;6.430;2023-06-14T03:27:41;15.00;99.90
35970;DHT22;22448;51.298;6.430;2023-06-14T03:30:08;15.00;99.90
35970;DHT22;22448;51.298;6.430;2023-06-14T03:32:36;15.00;99.90
35970;DHT22;22448;51.298;6.430;2023-06-14T03:35:04;15.00;99.90
35970;DHT22;22448;51.298;6.430;2023-06-14T03:37:32;15.10;99.90
35970;DHT22;22448;51.298;6.430;2023-06-14T03:40:00;15.10;99.90
35970;DHT22;22448;51.298;6.430;2023-06-14T03:42:30;15.20;99.90
35970;DHT22;22448;51.298;6.430;2023-06-14T03:44:57;15.20;99.90
35970;DHT22;22448;51.298;6.430;2023-06-14T03:47:24;15.20;99.90
35970;DHT22;22448;51.298;6.430;2023-06-14T03:49:52;15.30;99.90
35970;DHT22;22448;51.298;6.430;2023-06-14T03:52:19;15.30;99.90
35970;DHT22;22448;51.298;6.430;2023-06-14T03:54:48;15.40;99.80
35970;DHT22;22448;51.298;6.430;2023-06-14T03:57:18;15.40;99.80
35970;DHT22;22448;51.298;6.430;2023-06-14T03:59:48;15.40;99.90
35970;DHT22;22448;51.298;6.430;2023-06-14T04:02:15;15.40;99.90
35970;DHT22;22448;51.298;6.430;2023-06-14T04:04:44;15.50;99.90
35970;DHT22;22448;51.298;6.430;2023-06-14T04:07:12;15.50;99.70
35970;DHT22;22448;51.298;6.430;2023-06-14T04:09:40;15.60;99.80
35970;DHT22;22448;51.298;6.430;2023-06-14T04:12:07;15.60;99.60
35970;DHT22;22448;51.298;6.430;2023-06-14T04:14:39;15.70;99.60
35970;DHT22;22448;51.298;6.430;2023-06-14T04:17:09;15.80;99.60
35970;DHT22;22448;51.298;6.430;2023-06-14T04:19:37;15.80;99.30
35970;DHT22;22448;51.298;6.430;2023-06-14T04:22:04;15.90;99.20
35970;DHT22;22448;51.298;6.430;2023-06-14T04:24:34;15.90;99.10
35970;DHT22;22448;51.298;6.430;2023-06-14T04:27:02;15.90;99.10
35970;DHT22;22448;51.298;6.430;2023-06-14T04:29:30;16.00;99.00
35970;DHT22;22448;51.298;6.430;2023-06-14T04:32:05;16.00;99.30
35970;DHT22;22448;51.298;6.430;2023-06-14T04:34:32;16.00;99.20
35970;DHT22;22448;51.298;6.430;2023-06-14T04:37:01;16.10;99.20
35970;DHT22;22448;51.298;6.430;2023-06-14T04:39:31;16.10;99.10
35970;DHT22;22448;51.298;6.430;2023-06-14T04:42:00;16.20;98.80
35970;DHT22;22448;51.298;6.430;2023-06-14T04:44:32;16.30;98.70
35970;DHT22;22448;51.298;6.430;2023-06-14T04:47:02;16.30;98.60
35970;DHT22;22448;51.298;6.430;2023-06-14T04:49:29;16.40;98.50
35970;DHT22;22448;51.298;6.430;2023-06-14T04:51:59;16.50;98.80
35970;DHT22;22448;51.298;6.430;2023-06-14T04:54:39;16.90;99.00
35970;DHT22;22448;51.298;6.430;2023-06-14T04:57:11;18.90;96.70
35970;DHT22;22448;51.298;6.430;2023-06-14T04:59:46;20.70;93.00
35970;DHT22;22448;51.298;6.430;2023-06-14T05:02:13;22.20;90.40
35970;DHT22;22448;51.298;6.430;2023-06-14T05:04:41;23.40;87.40
35970;DHT22;22448;51.298;6.430;2023-06-14T05:07:08;24.70;84.30
35970;DHT22;22448;51.298;6.430;2023-06-14T05:09:36;25.70;81.40
35970;DHT22;22448;51.298;6.430;2023-06-14T05:12:04;26.50;79.00
35970;DHT22;22448;51.298;6.430;2023-06-14T05:14:31;27.10;77.20
35970;DHT22;22448;51.298;6.430;2023-06-14T05:16:58;27.80;75.80
35970;DHT22;22448;51.298;6.430;2023-06-14T05:19:26;28.40;75.10
35970;DHT22;22448;51.298;6.430;2023-06-14T05:21:53;28.50;73.60
35970;DHT22;22448;51.298;6.430;2023-06-14T05:24:20;28.80;73.10
35970;DHT22;22448;51.298;6.430;2023-06-14T05:26:47;29.00;72.60
35970;DHT22;22448;51.298;6.430;2023-06-14T05:29:15;29.50;72.70
35970;DHT22;22448;51.298;6.430;2023-06-14T05:31:42;29.50;72.40
35970;DHT22;22448;51.298;6.430;2023-06-14T05:34:10;29.80;72.30
35970;DHT22;22448;51.298;6.430;2023-06-14T05:36:37;30.40;71.80
35970;DHT22;22448;51.298;6.430;2023-06-14T05:39:04;30.30;69.60
35970;DHT22;22448;51.298;6.430;2023-06-14T05:41:32;30.20;68.30
35970;DHT22;22448;51.298;6.430;2023-06-14T05:44:00;30.20;67.90
35970;DHT22;22448;51.298;6.430;2023-06-14T05:46:28;29.90;68.30
35970;DHT22;22448;51.298;6.430;2023-06-14T05:48:55;29.70;67.70
35970;DHT22;22448;51.298;6.430;2023-06-14T05:51:22;29.60;67.60
35970;DHT22;22448;51.298;6.430;2023-06-14T05:53:51;30.20;68.10
35970;DHT22;22448;51.298;6.430;2023-06-14T05:56:19;31.20;67.70
35970;DHT22;22448;51.298;6.430;2023-06-14T05:58:46;31.80;66.40
35970;DHT22;22448;51.298;6.430;2023-06-14T06:01:14;32.10;66.20
35970;DHT22;22448;51.298;6.430;2023-06-14T06:03:42;32.40;66.30
35970;DHT22;22448;51.298;6.430;2023-06-14T06:06:13;32.30;65.60
35970;DHT22;22448;51.298;6.430;2023-06-14T06:08:40;32.80;65.60
35970;DHT22;22448;51.298;6.430;2023-06-14T06:11:07;33.10;65.00
35970;DHT22;22448;51.298;6.430;2023-06-14T06:13:35;33.30;65.20
35970;DHT22;22448;51.298;6.430;2023-06-14T06:16:03;33.00;65.20
35970;DHT22;22448;51.298;6.430;2023-06-14T06:18:30;33.00;64.70
35970;DHT22;22448;51.298;6.430;2023-06-14T06:20:57;32.80;64.60
35970;DHT22;22448;51.298;6.430;2023-06-14T06:23:24;33.10;64.70
35970;DHT22;22448;51.298;6.430;2023-06-14T06:25:51;32.50;64.50
35970;DHT22;22448;51.298;6.430;2023-06-14T06:28:18;32.90;65.10
35970;DHT22;22448;51.298;6.430;2023-06-14T06:30:45;33.20;65.60
35970;DHT22;22448;51.298;6.430;2023-06-14T06:33:12;32.90;64.00
35970;DHT22;22448;51.298;6.430;2023-06-14T06:35:41;33.70;64.60
35970;DHT22;22448;51.298;6.430;2023-06-14T06:38:08;34.20;64.30
35970;DHT22;22448;51.298;6.430;2023-06-14T06:40:37;34.30;63.90
35970;DHT22;22448;51.298;6.430;2023-06-14T06:43:03;33.60;63.00
35970;DHT22;22448;51.298;6.430;2023-06-14T06:45:39;33.60;63.50
35970;DHT22;22448;51.298;6.430;2023-06-14T06:48:06;33.90;62.80
35970;DHT22;22448;51.298;6.430;2023-06-14T06:51:13;34.60;63.90
35970;DHT22;22448;51.298;6.430;2023-06-14T06:53:41;34.30;62.80
35970;DHT22;22448;51.298;6.430;2023-06-14T06:56:15;34.50;63.60
35970;DHT22;22448;51.298;6.430;2023-06-14T06:58:42;34.70;63.00
35970;DHT22;22448;51.298;6.430;2023-06-14T07:01:09;34.00;62.30
35970;DHT22;22448;51.298;6.430;2023-06-14T07:03:36;34.40;62.30
35970;DHT22;22448;51.298;6.430;2023-06-14T07:06:03;33.60;62.10
35970;DHT22;22448;51.298;6.430;2023-06-14T07:08:30;33.90;62.00
35970;DHT22;22448;51.298;6.430;2023-06-14T07:11:00;33.80;62.80
35970;DHT22;22448;51.298;6.430;2023-06-14T07:13:27;34.40;63.10
35970;DHT22;22448;51.298;6.430;2023-06-14T07:15:58;33.40;62.20
35970;DHT22;22448;51.298;6.430;2023-06-14T07:18:25;34.20;63.00
35970;DHT22;22448;51.298;6.430;2023-06-14T07:20:53;34.30;62.50
35970;DHT22;22448;51.298;6.430;2023-06-14T07:23:21;34.30;62.30
35970;DHT22;22448;51.298;6.430;2023-06-14T07:25:48;33.20;61.70
35970;DHT22;22448;51.298;6.430;2023-06-14T07:28:16;33.90;61.80
35970;DHT22;22448;51.298;6.430;2023-06-14T07:30:43;34.10;60.90
35970;DHT22;22448;51.298;6.430;2023-06-14T07:33:10;33.30;61.10
35970;DHT22;22448;51.298;6.430;2023-06-14T07:35:39;33.70;60.60
35970;DHT22;22448;51.298;6.430;2023-06-14T07:38:08;33.90;61.10
35970;DHT22;22448;51.298;6.430;2023-06-14T07:40:36;33.10;60.20
35970;DHT22;22448;51.298;6.430;2023-06-14T07:43:03;33.10;60.30
35970;DHT22;22448;51.298;6.430;2023-06-14T07:45:30;32.20;60.50
35970;DHT22;22448;51.298;6.430;2023-06-14T07:47:57;32.80;61.30
35970;DHT22;22448;51.298;6.430;2023-06-14T07:50:24;31.90;61.20
35970;DHT22;22448;51.298;6.430;2023-06-14T07:52:51;32.30;61.60
35970;DHT22;22448;51.298;6.430;2023-06-14T07:55:18;31.90;60.00
35970;DHT22;22448;51.298;6.430;2023-06-14T07:57:45;32.30;61.80
35970;DHT22;22448;51.298;6.430;2023-06-14T08:00:13;30.80;60.40
35970;DHT22;22448;51.298;6.430;2023-06-14T08:02:43;30.80;60.80
35970;DHT22;22448;51.298;6.430;2023-06-14T08:05:11;30.10;61.10
35970;DHT22;22448;51.298;6.430;2023-06-14T08:07:39;30.80;61.80
35970;DHT22;22448;51.298;6.430;2023-06-14T08:10:08;30.70;61.20
35970;DHT22;22448;51.298;6.430;2023-06-14T08:12:38;30.40;60.80
35970;DHT22;22448;51.298;6.430;2023-06-14T08:15:05;30.20;60.60
35970;DHT22;22448;51.298;6.430;2023-06-14T08:17:41;29.30;61.40
35970;DHT22;22448;51.298;6.430;2023-06-14T08:20:09;29.00;60.80
35970;DHT22;22448;51.298;6.430;2023-06-14T08:22:36;28.90;61.20
35970;DHT22;22448;51.298;6.430;2023-06-14T08:25:04;28.50;61.20
35970;DHT22;22448;51.298;6.430;2023-06-14T08:27:31;28.30;62.00
35970;DHT22;22448;51.298;6.430;2023-06-14T08:29:58;28.70;62.10
35970;DHT22;22448;51.298;6.430;2023-06-14T08:32:25;28.90;62.60
35970;DHT22;22448;51.298;6.430;2023-06-14T08:34:52;29.10;62.00
35970;DHT22;22448;51.298;6.430;2023-06-14T08:37:32;29.00;61.10
35970;DHT22;22448;51.298;6.430;2023-06-14T08:40:00;29.10;60.60
35970;DHT22;22448;51.298;6.430;2023-06-14T08:42:32;28.70;60.70
35970;DHT22;22448;51.298;6.430;2023-06-14T08:45:00;28.00;60.90
35970;DHT22;22448;51.298;6.430;2023-06-14T08:47:27;27.90;61.10
35970;DHT22;22448;51.298;6.430;2023-06-14T08:49:56;27.60;62.30
35970;DHT22;22448;51.298;6.430;2023-06-14T08:52:27;27.00;64.30
35970;DHT22;22448;51.298;6.430;2023-06-14T08:54:56;26.80;62.20
35970;DHT22;22448;51.298;6.430;2023-06-14T08:57:24;26.10;62.90
35970;DHT22;22448;51.298;6.430;2023-06-14T08:59:52;26.00;64.10
35970;DHT22;22448;51.298;6.430;2023-06-14T09:02:20;26.10;65.80
35970;DHT22;22448;51.298;6.430;2023-06-14T09:04:49;26.10;63.40
35970;DHT22;22448;51.298;6.430;2023-06-14T09:07:19;26.20;63.20
35970;DHT22;22448;51.298;6.430;2023-06-14T09:09:46;26.30;64.10
35970;DHT22;22448;51.298;6.430;2023-06-14T09:12:31;26.50;64.90
35970;DHT22;22448;51.298;6.430;2023-06-14T09:14:58;26.70;65.10
35970;DHT22;22448;51.298;6.430;2023-06-14T09:17:26;26.20;65.50
35970;DHT22;22448;51.298;6.430;2023-06-14T09:19:55;25.80;63.70
35970;DHT22;22448;51.298;6.430;2023-06-14T09:22:22;25.70;64.40
35970;DHT22;22448;51.298;6.430;2023-06-14T09:24:49;25.80;66.20
35970;DHT22;22448;51.298;6.430;2023-06-14T09:27:16;25.90;65.60
35970;DHT22;22448;51.298;6.430;2023-06-14T09:29:43;26.20;65.80
35970;DHT22;22448;51.298;6.430;2023-06-14T09:32:10;26.40;64.40
35970;DHT22;22448;51.298;6.430;2023-06-14T09:34:37;26.30;65.80
35970;DHT22;22448;51.298;6.430;2023-06-14T09:37:04;26.30;65.50
35970;DHT22;22448;51.298;6.430;2023-06-14T09:39:31;26.50;66.00
35970;DHT22;22448;51.298;6.430;2023-06-14T09:41:58;26.30;66.10
35970;DHT22;22448;51.298;6.430;2023-06-14T09:44:25;26.30;67.80
35970;DHT22;22448;51.298;6.430;2023-06-14T09:46:55;26.40;66.60
35970;DHT22;22448;51.298;6.430;2023-06-14T09:49:23;26.20;66.10
35970;DHT22;22448;51.298;6.430;2023-06-14T09:51:53;26.00;67.10
35970;DHT22;22448;51.298;6.430;2023-06-14T09:54:22;26.10;66.40
35970;DHT22;22448;51.298;6.430;2023-06-14T09:56:51;26.00;67.10
35970;DHT22;22448;51.298;6.430;2023-06-14T09:59:26;25.90;67.80
35970;DHT22;22448;51.298;6.430;2023-06-14T10:01:58;26.20;68.50
35970;DHT22;22448;51.298;6.430;2023-06-14T10:04:28;26.30;67.50
35970;DHT22;22448;51.298;6.430;2023-06-14T10:06:56;26.20;67.50
35970;DHT22;22448;51.298;6.430;2023-06-14T10:09:24;26.30;67.10
35970;DHT22;22448;51.298;6.430;2023-06-14T10:11:52;26.20;67.30
35970;DHT22;22448;51.298;6.430;2023-06-14T10:14:19;26.10;66.80
35970;DHT22;22448;51.298;6.430;2023-06-14T10:16:52;26.20;68.30
35970;DHT22;22448;51.298;6.430;2023-06-14T10:19:29;26.10;68.80
35970;DHT22;22448;51.298;6.430;2023-06-14T10:24:59;25.70;68.20
35970;DHT22;22448;51.298;6.430;2023-06-14T10:27:27;25.80;67.90
35970;DHT22;22448;51.298;6.430;2023-06-14T10:32:23;26.00;67.60
35970;DHT22;22448;51.298;6.430;2023-06-14T10:34:59;25.90;66.70
35970;DHT22;22448;51.298;6.430;2023-06-14T10:37:27;25.90;67.70
35970;DHT22;22448;51.298;6.430;2023-06-14T10:39:54;26.00;66.20
35970;DHT22;22448;51.298;6.430;2023-06-14T10:42:22;26.00;66.40
35970;DHT22;22448;51.298;6.430;2023-06-14T10:44:55;25.70;67.60
35970;DHT22;22448;51.298;6.430;2023-06-14T10:47:33;25.60;67.40
35970;DHT22;22448;51.298;6.430;2023-06-14T10:50:06;25.60;67.30
35970;DHT22;22448;51.298;6.430;2023-06-14T10:52:43;25.80;66.80
35970;DHT22;22448;51.298;6.430;2023-06-14T10:55:19;25.80;65.90
35970;DHT22;22448;51.298;6.430;2023-06-14T10:57:55;25.90;66.40
35970;DHT22;22448;51.298;6.430;2023-06-14T11:00:27;26.10;67.30
35970;DHT22;22448;51.298;6.430;2023-06-14T11:03:28;26.20;66.60
35970;DHT22;22448;51.298;6.430;2023-06-14T11:05:58;26.20;66.50
35970;DHT22;22448;51.298;6.430;2023-06-14T11:08:59;26.10;66.30
35970;DHT22;22448;51.298;6.430;2023-06-14T11:11:32;25.80;66.30
35970;DHT22;22448;51.298;6.430;2023-06-14T11:14:03;26.00;67.00
35970;DHT22;22448;51.298;6.430;2023-06-14T11:16:31;25.90;66.70
35970;DHT22;22448;51.298;6.430;2023-06-14T11:19:03;25.90;66.80
35970;DHT22;22448;51.298;6.430;2023-06-14T11:21:32;25.90;65.90
35970;DHT22;22448;51.298;6.430;2023-06-14T11:24:00;25.90;66.60
35970;DHT22;22448;51.298;6.430;2023-06-14T11:26:31;26.00;67.30
35970;DHT22;22448;51.298;6.430;2023-06-14T11:29:01;26.10;67.00
35970;DHT22;22448;51.298;6.430;2023-06-14T11:31:29;26.10;66.40
35970;DHT22;22448;51.298;6.430;2023-06-14T11:33:58;26.10;64.80
35970;DHT22;22448;51.298;6.430;2023-06-14T11:36:29;26.20;66.10
35970;DHT22;22448;51.298;6.430;2023-06-14T11:39:06;26.20;67.30
35970;DHT22;22448;51.298;6.430;2023-06-14T11:41:37;26.30;67.20
35970;DHT22;22448;51.298;6.430;2023-06-14T11:44:06;26.20;66.60
35970;DHT22;22448;51.298;6.430;2023-06-14T11:46:33;26.20;65.50
35970;DHT22;22448;51.298;6.430;2023-06-14T11:49:02;26.30;65.50
35970;DHT22;22448;51.298;6.430;2023-06-14T11:51:35;26.20;65.40
35970;DHT22;22448;51.298;6.430;2023-06-14T11:54:03;26.20;65.60
35970;DHT22;22448;51.298;6.430;2023-06-14T11:56:31;25.70;65.00
35970;DHT22;22448;51.298;6.430;2023-06-14T11:58:59;25.70;66.30
35970;DHT22;22448;51.298;6.430;2023-06-14T12:01:26;25.80;66.70
35970;DHT22;22448;51.298;6.430;2023-06-14T12:03:54;26.10;67.70
35970;DHT22;22448;51.298;6.430;2023-06-14T12:06:30;26.30;67.20
35970;DHT22;22448;51.298;6.430;2023-06-14T12:09:03;26.50;66.90
35970;DHT22;22448;51.298;6.430;2023-06-14T12:11:35;26.50;66.00
35970;DHT22;22448;51.298;6.430;2023-06-14T12:14:06;26.70;66.90
35970;DHT22;22448;51.298;6.430;2023-06-14T12:16:38;26.80;66.60
35970;DHT22;22448;51.298;6.430;2023-06-14T12:21:38;26.50;65.10
35970;DHT22;22448;51.298;6.430;2023-06-14T12:24:06;26.40;65.20
35970;DHT22;22448;51.298;6.430;2023-06-14T12:26:37;26.60;65.50
35970;DHT22;22448;51.298;6.430;2023-06-14T12:29:05;26.40;65.80
35970;DHT22;22448;51.298;6.430;2023-06-14T12:31:34;26.50;67.50
35970;DHT22;22448;51.298;6.430;2023-06-14T12:34:01;26.50;68.40
35970;DHT22;22448;51.298;6.430;2023-06-14T12:36:28;26.40;66.60
35970;DHT22;22448;51.298;6.430;2023-06-14T12:38:56;26.50;67.00
35970;DHT22;22448;51.298;6.430;2023-06-14T12:41:23;26.60;67.10
35970;DHT22;22448;51.298;6.430;2023-06-14T12:43:51;26.70;67.60
35970;DHT22;22448;51.298;6.430;2023-06-14T12:46:18;26.70;67.40
35970;DHT22;22448;51.298;6.430;2023-06-14T12:48:46;26.80;67.20
35970;DHT22;22448;51.298;6.430;2023-06-14T12:51:13;26.50;67.50
35970;DHT22;22448;51.298;6.430;2023-06-14T12:53:40;26.40;67.40
35970;DHT22;22448;51.298;6.430;2023-06-14T12:56:07;26.50;67.30
35970;DHT22;22448;51.298;6.430;2023-06-14T12:58:34;26.60;66.50
35970;DHT22;22448;51.298;6.430;2023-06-14T13:01:01;26.60;67.30
35970;DHT22;22448;51.298;6.430;2023-06-14T13:03:28;26.50;67.60
35970;DHT22;22448;51.298;6.430;2023-06-14T13:05:56;26.60;68.00
35970;DHT22;22448;51.298;6.430;2023-06-14T13:08:22;26.70;68.20
35970;DHT22;22448;51.298;6.430;2023-06-14T13:10:51;26.80;67.30
35970;DHT22;22448;51.298;6.430;2023-06-14T13:13:18;26.80;66.50
35970;DHT22;22448;51.298;6.430;2023-06-14T13:15:45;26.60;67.70
35970;DHT22;22448;51.298;6.430;2023-06-14T13:18:16;26.40;67.90
35970;DHT22;22448;51.298;6.430;2023-06-14T13:20:44;26.40;68.10
35970;DHT22;22448;51.298;6.430;2023-06-14T13:23:12;26.20;67.40
35970;DHT22;22448;51.298;6.430;2023-06-14T13:25:40;26.10;67.80
35970;DHT22;22448;51.298;6.430;2023-06-14T13:28:07;26.40;68.70
35970;DHT22;22448;51.298;6.430;2023-06-14T13:30:34;26.80;69.70
35970;DHT22;22448;51.298;6.430;2023-06-14T13:33:01;27.00;69.60
35970;DHT22;22448;51.298;6.430;2023-06-14T13:35:29;27.10;67.70
35970;DHT22;22448;51.298;6.430;2023-06-14T13:37:56;26.90;67.70
35970;DHT22;22448;51.298;6.430;2023-06-14T13:40:22;27.10;68.30
35970;DHT22;22448;51.298;6.430;2023-06-14T13:42:49;27.00;67.80
35970;DHT22;22448;51.298;6.430;2023-06-14T13:45:17;26.90;67.90
35970;DHT22;22448;51.298;6.430;2023-06-14T13:47:43;26.70;68.70
35970;DHT22;22448;51.298;6.430;2023-06-14T13:50:11;26.80;68.50
35970;DHT22;22448;51.298;6.430;2023-06-14T13:52:39;26.80;68.30
35970;DHT22;22448;51.298;6.430;2023-06-14T13:55:07;26.80;68.00
35970;DHT22;22448;51.298;6.430;2023-06-14T13:57:34;26.80;70.00
35970;DHT22;22448;51.298;6.430;2023-06-14T14:00:01;26.70;67.90
35970;DHT22;22448;51.298;6.430;2023-06-14T14:02:38;26.40;69.10
35970;DHT22;22448;51.298;6.430;2023-06-14T14:05:08;26.20;68.70
35970;DHT22;22448;51.298;6.430;2023-06-14T14:07:35;26.30;68.80
35970;DHT22;22448;51.298;6.430;2023-06-14T14:10:03;26.50;68.10
35970;DHT22;22448;51.298;6.430;2023-06-14T14:12:30;26.70;68.50
35970;DHT22;22448;51.298;6.430;2023-06-14T14:14:58;26.90;68.20
35970;DHT22;22448;51.298;6.430;2023-06-14T14:17:24;26.80;67.20
35970;DHT22;22448;51.298;6.430;2023-06-14T14:19:52;26.90;68.40
35970;DHT22;22448;51.298;6.430;2023-06-14T14:22:19;26.60;69.30
35970;DHT22;22448;51.298;6.430;2023-06-14T14:24:46;26.60;69.70
35970;DHT22;22448;51.298;6.430;2023-06-14T14:27:13;26.80;67.90
35970;DHT22;22448;51.298;6.430;2023-06-14T14:29:40;26.80;67.90
35970;DHT22;22448;51.298;6.430;2023-06-14T14:32:08;26.40;67.80
35970;DHT22;22448;51.298;6.430;2023-06-14T14:34:37;26.30;68.40
35970;DHT22;22448;51.298;6.430;2023-06-14T14:37:04;26.30;68.40
35970;DHT22;22448;51.298;6.430;2023-06-14T14:39:31;26.50;68.50
35970;DHT22;22448;51.298;6.430;2023-06-14T14:41:58;26.70;69.40
35970;DHT22;22448;51.298;6.430;2023-06-14T14:44:25;26.70;69.30
35970;DHT22;22448;51.298;6.430;2023-06-14T14:46:52;26.60;69.20
35970;DHT22;22448;51.298;6.430;2023-06-14T14:49:19;26.60;69.30
35970;DHT22;22448;51.298;6.430;2023-06-14T14:51:47;26.30;68.60
35970;DHT22;22448;51.298;6.430;2023-06-14T14:54:14;26.40;68.90
35970;DHT22;22448;51.298;6.430;2023-06-14T14:56:41;26.40;69.30
35970;DHT22;22448;51.298;6.430;2023-06-14T14:59:08;26.60;68.40
35970;DHT22;22448;51.298;6.430;2023-06-14T15:01:35;26.50;69.10
35970;DHT22;22448;51.298;6.430;2023-06-14T15:04:02;26.30;70.10
35970;DHT22;22448;51.298;6.430;2023-06-14T15:06:29;26.10;70.50
35970;DHT22;22448;51.298;6.430;2023-06-14T15:08:57;26.20;70.70
35970;DHT22;22448;51.298;6.430;2023-06-14T15:11:24;26.30;70.10
35970;DHT22;22448;51.298;6.430;2023-06-14T15:13:51;26.30;69.50
35970;DHT22;22448;51.298;6.430;2023-06-14T15:16:19;26.40;69.30
35970;DHT22;22448;51.298;6.430;2023-06-14T15:18:46;26.30;69.20
35970;DHT22;22448;51.298;6.430;2023-06-14T15:21:13;26.30;69.10
35970;DHT22;22448;51.298;6.430;2023-06-14T15:23:40;26.20;69.40
35970;DHT22;22448;51.298;6.430;2023-06-14T15:26:07;26.10;69.30
35970;DHT22;22448;51.298;6.430;2023-06-14T15:28:34;26.20;70.60
35970;DHT22;22448;51.298;6.430;2023-06-14T15:31:01;26.20;71.30
35970;DHT22;22448;51.298;6.430;2023-06-14T15:33:28;26.20;69.60
35970;DHT22;22448;51.298;6.430;2023-06-14T15:35:55;26.00;69.60
35970;DHT22;22448;51.298;6.430;2023-06-14T15:38:23;25.90;69.00
35970;DHT22;22448;51.298;6.430;2023-06-14T15:40:49;25.80;69.80
35970;DHT22;22448;51.298;6.430;2023-06-14T15:43:18;25.80;70.00
35970;DHT22;22448;51.298;6.430;2023-06-14T15:45:44;25.70;69.60
35970;DHT22;22448;51.298;6.430;2023-06-14T15:48:12;25.70;70.30
35970;DHT22;22448;51.298;6.430;2023-06-14T15:50:39;25.80;70.60